Nearby METAR Reports

 

KSJC - San Jose, California, USA
Distance from station: NE 9mi, 14km
Updated: Thu, 19-May-2022 8:53am PDT
Few Clouds
Few Clouds
 Wind from N
Wind: N 7 mph , 11 km/h
Temperature: 66°F , 19°C
Dew Point: 52°F , 11°C
Humidity: 60%
Barometer: 30.01 inHg , 1016.3 hPa
Clouds: Few Clouds
Visibility: 9 miles , 14 km
Cloud details: Few Clouds 7000 ft
Few Clouds 11000 ft
2022/05/19 15:53 KSJC 191553Z 35006KT 9SM FEW070 FEW110 19/11 A3001 RMK AO2 SLP160 T01890106
KNUQ - Moffett Nas/Mtn, California, USA
Distance from station: N 9mi, 14km
Updated: Thu, 19-May-2022 8:50am PDT
Clear
Clear
 Wind from N
Wind: N 10 mph , 17 km/h
Temperature: 66°F , 19°C
Dew Point: 52°F , 11°C
Humidity: 60%
Barometer: 30.00 inHg , 1015.9 hPa
Clouds: Clear
Visibility: 10 miles , 16 km
2022/05/19 15:50 KNUQ 191550Z AUTO 36009KT 10SM CLR 19/11 A3000 RMK AO2
KPAO - Palo Alto, California, USA
Distance from station: NNW 14mi, 23km
Updated: Thu, 19-May-2022 8:47am PDT
Clear
Clear
 Wind from NW
Wind: NW 12 mph , 19 km/h
Temperature: 66°F , 19°C
Dew Point: 66°F , 19°C
Humidity: 100%
Barometer: 30.01 inHg , 1016.3 hPa
Clouds: Clear
Visibility: 10 miles , 16 km
2022/05/19 15:47 KPAO 191547Z 31010KT 280V360 10SM SKC 19/19 A3001
 
KRHV - San Jose/Reid, California, USA
Distance from station: ENE 12mi, 19km
Updated: Thu, 19-May-2022 7:50am PDT
Clear
Clear
 Wind from calm
Wind: Calm
Temperature: 63°F , 17°C
Dew Point: 52°F , 11°C
Humidity: 68%
Barometer: 30.01 inHg , 1016.3 hPa
Clouds: Clear
Visibility: 10 miles , 16 km
2022/05/19 14:50 KRHV 191450Z 00000KT 10SM SKC 17/11 A3001
KOAK - Oakland, California, USA
Distance from station: NNW 31mi, 50km
Updated: Thu, 19-May-2022 8:53am PDT
Partly cloudy
Partly cloudy
 Wind from calm
Wind: Calm
Temperature: 64°F , 18°C
Dew Point: 54°F , 12°C
Humidity: 68%
Barometer: 30.00 inHg , 1015.9 hPa
Clouds: Partly cloudy
Visibility: 10 miles , 16 km
Cloud details: Partly cloudy 20000 ft
2022/05/19 15:53 KOAK 191553Z 00000KT 10SM SCT200 18/12 A3000 RMK AO2 SLP159 T01780117
KSQL - San Carlos Airpo, California, USA
Distance from station: NW 21mi, 34km
Updated: Thu, 19-May-2022 7:58am PDT
Few Clouds
Few Clouds
 Wind from WNW
Wind: WNW 13 mph , 20 km/h
Temperature: 64°F , 18°C
Dew Point: 45°F , 7°C
Humidity: 49%
Barometer: 30.01 inHg , 1016.3 hPa
Clouds: Few Clouds
Visibility: 10 miles , 16 km
Cloud details: Few Clouds 20000 ft
2022/05/19 14:58 KSQL 191458Z 29011KT 10SM FEW200 18/07 A3001
 
KSFO - San Francisco, California, USA
Distance from station: NW 30mi, 49km
Updated: Thu, 19-May-2022 8:56am PDT
Few Clouds
Few Clouds
 Wind from WNW
Wind: WNW 17 mph , 28 km/h, Gust: 25 mph , 41 km/h
Temperature: 61°F , 16°C
Dew Point: 46°F , 8°C
Humidity: 59%
Barometer: 30.01 inHg , 1016.3 hPa
Clouds: Few Clouds
Visibility: 10 miles , 16 km
Cloud details: Few Clouds 20000 ft
2022/05/19 15:56 KSFO 191556Z 29015G22KT 10SM FEW200 16/08 A3001 RMK AO2 SLP161 T01560083
KE16 - San Martin, California, USA
Distance from station: ESE 27mi, 43km
Updated: Thu, 19-May-2022 8:55am PDT
Clear
Clear
 Wind from NNW
Wind: NNW 17 mph , 28 km/h
Temperature: 68°F , 20°C
Dew Point: 50°F , 10°C
Humidity: 53%
Barometer: 30.00 inHg , 1015.9 hPa
Clouds: Clear
Visibility: 10 miles , 16 km
2022/05/19 15:55 KE16 191555Z AUTO 34015KT 10SM CLR 20/10 A3000 RMK AO2 PWINO PNO
KWVI - Watsonville, California, USA
Distance from station: SSE 27mi, 44km
Updated: Thu, 19-May-2022 8:53am PDT
Clear
Clear
 Wind from calm
Wind: Calm
Temperature: 64°F , 18°C
Dew Point: 54°F , 12°C
Humidity: 68%
Barometer: 29.99 inHg , 1015.6 hPa
Clouds: Clear
Visibility: 10 miles , 16 km
2022/05/19 15:53 KWVI 191553Z AUTO 00000KT 10SM CLR 18/12 A2999 RMK AO2 SLP154 T01780122
 
KHAF - Half Moon Bay, California, USA
Distance from station: WNW 31mi, 50km
Updated: Thu, 19-May-2022 8:55am PDT
Haze, Clear
Haze, Clear
 Wind from N
Wind: N 14 mph , 22 km/h, Gust: 24 mph , 39 km/h
Temperature: 55°F , 13°C
Dew Point: 52°F , 11°C
Humidity: 88%
Barometer: 30.02 inHg , 1016.6 hPa
Summary: Haze
Clouds: Clear
Visibility: 4 miles , 6 km
2022/05/19 15:55 KHAF 191555Z AUTO 36012G21KT 4SM HZ CLR 13/11 A3002 RMK AO2
KHWD - Hayward, California, USA
Distance from station: N 28mi, 44km
Updated: Thu, 19-May-2022 8:54am PDT
Clear
Clear
 Wind from varies
Wind: varies 6 mph , 9 km/h
Temperature: 63°F , 17°C
Dew Point: 54°F , 12°C
Humidity: 73%
Barometer: 30.00 inHg , 1015.9 hPa
Clouds: Clear
Visibility: 10 miles , 16 km
2022/05/19 15:54 KHWD 191554Z VRB05KT 10SM CLR 17/12 A3000 RMK AO2 SLP167 T01670117
KLVK - Livermore, California, USA
Distance from station: NNE 31mi, 51km
Updated: Thu, 19-May-2022 8:53am PDT
Clear
Clear
 Wind from WSW
Wind: WSW 3 mph , 6 km/h
Temperature: 72°F , 22°C
Dew Point: 48°F , 9°C
Humidity: 44%
Barometer: 29.98 inHg , 1015.2 hPa
Clouds: Clear
Visibility: 10 miles , 16 km
2022/05/19 15:53 KLVK 191553Z 25003KT 10SM CLR 22/09 A2998 RMK AO2 SLP148 T02220094